createdAt,value
2023-01-23T00:01:34.451Z,53.30
2023-01-23T00:04:02.096Z,54.07
2023-01-23T00:06:29.671Z,53.43
2023-01-23T00:08:57.537Z,53.70
2023-01-23T00:11:28.547Z,53.20
2023-01-23T00:13:58.358Z,53.40
2023-01-23T00:16:28.246Z,53.97
2023-01-23T00:18:56.340Z,53.80
2023-01-23T00:21:27.461Z,54.47
2023-01-23T00:23:57.178Z,54.97
2023-01-23T00:26:29.383Z,54.83
2023-01-23T00:28:57.124Z,53.23
2023-01-23T00:31:36.137Z,53.80
2023-01-23T00:34:11.978Z,53.97
2023-01-23T00:36:42.635Z,54.90
2023-01-23T00:39:17.703Z,53.93
2023-01-23T00:41:47.207Z,52.70
2023-01-23T00:44:15.413Z,53.00
2023-01-23T00:46:42.682Z,52.57
2023-01-23T00:49:10.259Z,52.80
2023-01-23T00:51:37.699Z,53.90
2023-01-23T00:54:04.826Z,53.30
2023-01-23T00:56:32.050Z,53.73
2023-01-23T00:58:59.513Z,52.67
2023-01-23T01:01:27.984Z,52.87
2023-01-23T01:03:55.500Z,53.40
2023-01-23T01:06:22.946Z,53.50
2023-01-23T01:08:50.754Z,52.77
2023-01-23T01:11:18.523Z,52.80
2023-01-23T01:13:46.336Z,53.13
2023-01-23T01:16:14.111Z,54.17
2023-01-23T01:18:41.294Z,51.87
2023-01-23T01:21:10.818Z,53.17
2023-01-23T01:23:39.040Z,54.27
2023-01-23T01:26:07.550Z,53.23
2023-01-23T01:28:36.824Z,52.17
2023-01-23T01:31:12.254Z,53.10
2023-01-23T01:33:41.258Z,52.43
2023-01-23T01:36:14.693Z,53.53
2023-01-23T01:38:41.853Z,53.20
2023-01-23T01:41:09.610Z,52.87
2023-01-23T01:43:37.308Z,53.00
2023-01-23T01:46:26.731Z,52.63
2023-01-23T01:49:24.272Z,52.60
2023-01-23T01:51:56.870Z,53.53
2023-01-23T01:54:38.626Z,53.33
2023-01-23T01:57:12.134Z,52.67
2023-01-23T02:00:05.331Z,52.20
2023-01-23T02:02:51.156Z,53.50
2023-01-23T02:05:28.089Z,53.53
2023-01-23T02:08:23.169Z,52.70
2023-01-23T02:10:52.854Z,52.10
2023-01-23T02:13:39.946Z,52.73
2023-01-23T02:16:11.512Z,52.53
2023-01-23T02:18:46.334Z,51.93
2023-01-23T02:21:16.370Z,52.47
2023-01-23T02:24:20.567Z,53.00
2023-01-23T02:26:47.753Z,52.80
2023-01-23T02:29:16.614Z,54.07
2023-01-23T02:31:49.811Z,53.93
2023-01-23T02:34:17.493Z,52.50
2023-01-23T02:36:48.309Z,53.37
2023-01-23T02:39:19.284Z,53.47
2023-01-23T02:41:53.486Z,52.23
2023-01-23T02:44:33.465Z,53.43
2023-01-23T02:47:11.779Z,54.10
2023-01-23T02:49:40.463Z,52.67
2023-01-23T02:52:09.941Z,53.53
2023-01-23T02:54:37.227Z,54.50
2023-01-23T02:57:04.521Z,52.23
2023-01-23T02:59:50.083Z,53.27
2023-01-23T03:02:17.916Z,54.10
2023-01-23T03:04:45.494Z,53.43
2023-01-23T03:07:12.966Z,53.67
2023-01-23T03:09:41.983Z,54.20
2023-01-23T03:12:09.461Z,52.77
2023-01-23T03:14:38.049Z,52.73
2023-01-23T03:17:05.570Z,53.83
2023-01-23T03:19:35.730Z,53.27
2023-01-23T03:22:02.906Z,53.30
2023-01-23T03:24:30.010Z,53.33
2023-01-23T03:26:57.161Z,53.00
2023-01-23T03:29:45.211Z,54.40
2023-01-23T03:32:16.774Z,52.67
2023-01-23T03:34:45.077Z,54.07
2023-01-23T03:37:13.598Z,54.07
2023-01-23T03:40:02.669Z,54.10
2023-01-23T03:42:34.804Z,52.50
2023-01-23T03:45:04.264Z,53.83
2023-01-23T03:47:34.336Z,53.90
2023-01-23T03:50:01.432Z,53.87
2023-01-23T03:52:33.437Z,53.70
2023-01-23T03:55:00.857Z,54.17
2023-01-23T03:57:28.416Z,53.70
2023-01-23T04:00:01.863Z,55.40
2023-01-23T04:02:41.406Z,54.57
2023-01-23T04:05:10.864Z,53.80
2023-01-23T04:07:38.968Z,53.60
2023-01-23T04:10:06.687Z,54.00
2023-01-23T04:12:33.739Z,53.90
2023-01-23T04:15:01.179Z,53.27
2023-01-23T04:17:29.317Z,54.47
2023-01-23T04:19:56.737Z,54.57
2023-01-23T04:22:24.169Z,54.57
2023-01-23T04:24:51.410Z,53.83
2023-01-23T04:27:19.822Z,54.23
2023-01-23T04:29:48.058Z,54.83
2023-01-23T04:32:15.247Z,54.40
2023-01-23T04:34:46.054Z,54.27
2023-01-23T04:37:13.304Z,53.97
2023-01-23T04:39:41.433Z,54.70
2023-01-23T04:42:09.168Z,54.67
2023-01-23T04:45:06.421Z,55.23
2023-01-23T04:47:33.562Z,53.50
2023-01-23T04:50:03.940Z,53.63
2023-01-23T04:52:34.291Z,54.20
2023-01-23T04:55:01.906Z,53.33
2023-01-23T04:57:29.424Z,53.53
2023-01-23T05:00:11.106Z,54.67
2023-01-23T05:02:38.705Z,53.80
2023-01-23T05:05:06.947Z,54.27
2023-01-23T05:07:34.460Z,55.23
2023-01-23T05:10:07.786Z,53.73
2023-01-23T05:12:35.736Z,53.10
2023-01-23T05:15:04.437Z,53.70
2023-01-23T05:17:35.102Z,54.43
2023-01-23T05:20:03.713Z,54.23
2023-01-23T05:22:31.220Z,54.23
2023-01-23T05:24:59.702Z,54.23
2023-01-23T05:27:29.722Z,54.83
2023-01-23T05:29:59.745Z,54.53
2023-01-23T05:32:31.015Z,54.20
2023-01-23T05:35:11.898Z,54.17
2023-01-23T05:37:42.399Z,54.63
2023-01-23T05:40:13.186Z,54.60
2023-01-23T05:42:59.129Z,53.70
2023-01-23T05:46:02.131Z,55.10
2023-01-23T05:49:02.051Z,54.63
2023-01-23T05:51:32.596Z,54.53
2023-01-23T05:54:02.156Z,72.40
2023-01-23T05:56:30.250Z,57.77
2023-01-23T05:59:23.089Z,56.43
2023-01-23T06:02:00.777Z,55.03
2023-01-23T06:04:40.539Z,55.47
2023-01-23T06:07:20.062Z,55.13
2023-01-23T06:09:51.277Z,54.90
2023-01-23T06:12:18.387Z,54.63
2023-01-23T06:14:45.504Z,54.53
2023-01-23T06:17:13.461Z,55.03
2023-01-23T06:19:40.591Z,55.00
2023-01-23T06:22:08.953Z,53.17
2023-01-23T06:24:52.786Z,54.13
2023-01-23T06:27:20.803Z,54.33
2023-01-23T06:29:47.956Z,55.23
2023-01-23T06:32:16.489Z,54.73
2023-01-23T06:34:44.080Z,55.33
2023-01-23T06:37:12.087Z,53.47
2023-01-23T06:39:42.920Z,56.87
2023-01-23T06:42:10.989Z,55.40
2023-01-23T06:44:43.392Z,54.10
2023-01-23T06:47:11.758Z,56.37
2023-01-23T06:49:41.126Z,54.40
2023-01-23T06:52:08.678Z,55.17
2023-01-23T06:54:36.684Z,54.77
2023-01-23T06:57:04.843Z,53.83
2023-01-23T06:59:32.577Z,54.70
2023-01-23T07:02:02.822Z,54.93
2023-01-23T07:04:37.972Z,54.33
2023-01-23T07:07:05.924Z,54.77
2023-01-23T07:09:34.380Z,54.67
2023-01-23T07:12:09.554Z,56.40
2023-01-23T07:14:36.763Z,54.37
2023-01-23T07:17:04.341Z,56.30
2023-01-23T07:19:32.569Z,54.43
2023-01-23T07:22:01.446Z,56.23
2023-01-23T07:24:31.664Z,55.63
2023-01-23T07:26:58.996Z,55.67
2023-01-23T07:29:26.189Z,55.20
2023-01-23T07:31:53.459Z,55.83
2023-01-23T07:34:20.977Z,54.67
2023-01-23T07:36:48.019Z,55.93
2023-01-23T07:39:16.201Z,55.33
2023-01-23T07:41:45.427Z,54.53
2023-01-23T07:44:20.392Z,54.90
2023-01-23T07:46:49.049Z,54.83
2023-01-23T07:49:16.241Z,55.67
2023-01-23T07:51:43.795Z,55.40
2023-01-23T07:54:11.304Z,55.03
2023-01-23T07:56:38.886Z,57.73
2023-01-23T07:59:06.038Z,54.40
2023-01-23T08:01:33.078Z,55.47
2023-01-23T08:04:00.634Z,55.50
2023-01-23T08:06:27.757Z,54.77
2023-01-23T08:08:54.846Z,55.17
2023-01-23T08:11:23.944Z,56.73
2023-01-23T08:13:52.642Z,55.97
2023-01-23T08:16:20.154Z,56.77
2023-01-23T08:18:47.249Z,53.67
2023-01-23T08:21:14.412Z,56.73
2023-01-23T08:23:41.928Z,56.40
2023-01-23T08:26:11.609Z,55.73
2023-01-23T08:28:38.758Z,56.50
2023-01-23T08:31:09.047Z,55.90
2023-01-23T08:33:38.109Z,55.93
2023-01-23T08:36:08.997Z,55.83
2023-01-23T08:38:38.338Z,57.33
2023-01-23T08:41:06.288Z,56.30
2023-01-23T08:43:33.625Z,55.67
2023-01-23T08:46:00.949Z,57.90
2023-01-23T08:48:28.504Z,56.60
2023-01-23T08:51:02.368Z,56.37
2023-01-23T08:53:30.859Z,56.67
2023-01-23T08:56:22.768Z,55.63
2023-01-23T08:58:50.554Z,56.83
2023-01-23T09:01:25.057Z,56.67
2023-01-23T09:03:52.649Z,55.87
2023-01-23T09:06:22.120Z,57.10
2023-01-23T09:08:49.470Z,56.43
2023-01-23T09:11:17.586Z,58.67
2023-01-23T09:13:46.850Z,58.63
2023-01-23T09:16:14.220Z,58.23
2023-01-23T09:18:41.726Z,61.60
2023-01-23T09:21:16.629Z,61.33
2023-01-23T09:23:43.862Z,59.60
2023-01-23T09:26:14.294Z,62.23
2023-01-23T09:28:42.823Z,61.47
2023-01-23T09:31:13.029Z,60.07
2023-01-23T09:33:41.033Z,59.20
2023-01-23T09:36:09.140Z,57.63
2023-01-23T09:38:36.557Z,55.40
2023-01-23T09:41:24.297Z,56.47
2023-01-23T09:44:07.559Z,57.03
2023-01-23T09:46:51.965Z,56.60
2023-01-23T09:49:49.711Z,56.83
2023-01-23T09:52:23.458Z,57.80
2023-01-23T09:55:33.783Z,56.63
2023-01-23T09:58:03.532Z,57.77
2023-01-23T10:00:33.801Z,56.07
2023-01-23T10:03:04.815Z,57.93
2023-01-23T10:06:06.863Z,58.30
2023-01-23T10:08:55.265Z,59.30
2023-01-23T10:11:56.327Z,59.30
2023-01-23T10:14:48.261Z,55.97
2023-01-23T10:17:44.019Z,56.30
2023-01-23T10:20:41.653Z,58.37
2023-01-23T10:23:47.343Z,57.20
2023-01-23T10:26:26.261Z,57.23
2023-01-23T10:29:14.356Z,57.00
2023-01-23T10:31:51.902Z,56.53
2023-01-23T10:34:26.947Z,57.57
2023-01-23T10:37:41.058Z,56.50
2023-01-23T10:40:15.401Z,56.27
2023-01-23T10:42:42.555Z,56.13
2023-01-23T10:45:19.415Z,56.13
2023-01-23T10:47:54.727Z,56.43
2023-01-23T10:50:40.709Z,59.40
2023-01-23T10:53:19.964Z,57.70
2023-01-23T10:55:47.513Z,75.73
2023-01-23T11:00:36.416Z,59.27
2023-01-23T11:03:21.876Z,58.57
2023-01-23T11:06:02.049Z,56.37
2023-01-23T11:08:41.060Z,58.20
2023-01-23T11:11:22.807Z,58.13
2023-01-23T11:14:16.936Z,58.50
2023-01-23T11:16:44.742Z,57.10
2023-01-23T11:19:20.239Z,56.83
2023-01-23T11:21:58.661Z,57.53
2023-01-23T11:24:39.839Z,56.27
2023-01-23T11:27:20.645Z,58.10
2023-01-23T11:30:09.503Z,58.43
2023-01-23T11:32:52.619Z,58.67
2023-01-23T11:35:30.042Z,57.90
2023-01-23T11:37:58.838Z,58.63
2023-01-23T11:40:26.247Z,58.43
2023-01-23T11:42:55.691Z,58.90
2023-01-23T11:45:37.860Z,57.90
2023-01-23T11:48:29.959Z,60.20
2023-01-23T11:51:13.223Z,57.77
2023-01-23T11:53:52.140Z,58.47
2023-01-23T11:57:12.067Z,58.63
2023-01-23T11:59:42.234Z,58.43
2023-01-23T12:02:31.563Z,58.27
2023-01-23T12:05:29.816Z,58.40
2023-01-23T12:08:23.807Z,58.57
2023-01-23T12:11:12.138Z,57.40
2023-01-23T12:14:15.487Z,66.60
2023-01-23T12:17:09.197Z,60.70
2023-01-23T12:19:45.081Z,60.13
2023-01-23T12:22:53.554Z,58.60
2023-01-23T12:25:37.842Z,58.43
2023-01-23T12:28:35.532Z,57.63
2023-01-23T12:31:33.598Z,59.13
2023-01-23T12:34:34.667Z,58.60
2023-01-23T12:37:29.961Z,57.50
2023-01-23T12:40:08.606Z,57.30
2023-01-23T12:43:22.130Z,58.30
2023-01-23T12:46:05.844Z,58.50
2023-01-23T12:49:19.125Z,59.63
2023-01-23T12:51:52.826Z,57.57
2023-01-23T12:54:33.788Z,58.07
2023-01-23T12:57:04.733Z,58.93
2023-01-23T13:00:01.234Z,57.10
2023-01-23T13:02:48.634Z,57.13
2023-01-23T13:05:27.142Z,57.67
2023-01-23T13:08:40.543Z,58.67
2023-01-23T13:11:58.743Z,58.40
2023-01-23T13:15:06.993Z,56.50
2023-01-23T13:17:45.095Z,56.83
2023-01-23T13:20:48.272Z,57.20
2023-01-23T13:23:32.051Z,59.03
2023-01-23T13:26:20.768Z,58.20
2023-01-23T13:28:56.162Z,59.37
2023-01-23T13:31:47.209Z,60.47
2023-01-23T13:34:17.349Z,59.73
2023-01-23T13:36:47.695Z,59.37
2023-01-23T13:39:17.946Z,57.90
2023-01-23T13:42:14.206Z,58.40
2023-01-23T13:45:20.826Z,59.90
2023-01-23T14:20:39.687Z,61.43
2023-01-23T14:23:38.193Z,60.80
2023-01-23T14:26:09.476Z,59.70
2023-01-23T14:28:37.322Z,60.80
2023-01-23T14:31:26.536Z,59.97
2023-01-23T14:34:09.161Z,60.10
2023-01-23T14:36:38.679Z,59.33
2023-01-23T14:39:05.923Z,58.00
2023-01-23T14:41:41.368Z,59.77
2023-01-23T14:44:23.458Z,59.47
2023-01-23T14:46:56.876Z,58.73
2023-01-23T14:49:35.189Z,59.50
2023-01-23T14:52:08.024Z,59.67
2023-01-23T14:54:37.862Z,59.47
2023-01-23T14:57:09.540Z,58.87
2023-01-23T14:59:39.764Z,60.20
2023-01-23T15:02:31.308Z,58.87
2023-01-23T15:05:13.428Z,60.00
2023-01-23T15:08:00.155Z,59.07
2023-01-23T15:10:45.132Z,59.20
2023-01-23T15:13:22.915Z,60.20
2023-01-23T15:16:06.071Z,59.50
2023-01-23T15:18:36.984Z,59.10
2023-01-23T15:21:08.541Z,60.17
2023-01-23T15:23:40.845Z,59.87
2023-01-23T15:26:24.024Z,58.57
2023-01-23T15:28:52.947Z,60.17
2023-01-23T15:31:32.357Z,60.10
2023-01-23T15:34:31.501Z,60.03
2023-01-23T15:37:12.550Z,59.17
2023-01-23T15:39:40.882Z,60.80
2023-01-23T15:42:13.890Z,60.30
2023-01-23T15:44:42.880Z,59.80
2023-01-23T15:47:11.053Z,60.43
2023-01-23T15:49:40.378Z,66.03
2023-01-23T15:52:28.593Z,60.77
2023-01-23T15:55:00.732Z,60.93
2023-01-23T15:57:28.277Z,60.40
2023-01-23T15:59:55.739Z,58.70
2023-01-23T16:02:31.070Z,60.30
2023-01-23T16:05:01.161Z,59.60
2023-01-23T16:07:35.078Z,59.77
2023-01-23T16:10:19.677Z,59.40
2023-01-23T16:12:48.959Z,59.93
2023-01-23T16:15:27.376Z,59.87
2023-01-23T16:17:55.369Z,62.33
2023-01-23T16:20:23.794Z,62.67
2023-01-23T16:22:57.679Z,61.33
2023-01-23T16:25:44.552Z,60.07
2023-01-23T16:28:25.954Z,63.17
2023-01-23T16:30:53.880Z,60.20
2023-01-23T16:33:22.200Z,59.80
2023-01-23T16:35:51.123Z,62.47
2023-01-23T16:38:27.861Z,60.43
2023-01-23T16:40:56.819Z,59.47
2023-01-23T16:43:24.167Z,58.77
2023-01-23T16:45:56.108Z,60.17
2023-01-23T16:48:27.622Z,58.37
2023-01-23T16:51:12.938Z,61.03
2023-01-23T16:53:44.264Z,60.30
2023-01-23T16:56:37.506Z,59.40
2023-01-23T16:59:08.222Z,59.07
2023-01-23T17:01:40.422Z,59.43
2023-01-23T17:04:07.981Z,59.80
2023-01-23T17:06:35.417Z,58.67
2023-01-23T17:09:02.891Z,58.73
2023-01-23T17:11:36.914Z,60.30
2023-01-23T17:14:21.139Z,60.47
2023-01-23T17:16:49.936Z,60.73
2023-01-23T17:19:29.299Z,59.43
2023-01-23T17:21:58.641Z,59.57
2023-01-23T17:24:26.124Z,60.40
2023-01-23T17:26:53.210Z,60.83
2023-01-23T17:29:20.792Z,59.87
2023-01-23T17:31:49.129Z,62.17
2023-01-23T17:34:26.845Z,60.37
2023-01-23T17:36:55.153Z,59.83
2023-01-23T17:39:22.512Z,60.87
2023-01-23T17:41:51.385Z,60.70
2023-01-23T17:44:18.883Z,60.70
2023-01-23T17:46:47.535Z,59.87
2023-01-23T17:49:30.554Z,64.07
2023-01-23T17:52:00.184Z,58.10
2023-01-23T17:54:27.525Z,61.57
2023-01-23T17:56:55.327Z,61.33
2023-01-23T17:59:22.887Z,60.27
2023-01-23T18:01:50.457Z,81.13
2023-01-23T18:04:21.649Z,60.60
2023-01-23T18:06:49.640Z,63.17
2023-01-23T18:09:17.296Z,61.43
2023-01-23T18:11:52.162Z,61.10
2023-01-23T18:14:35.148Z,63.70
2023-01-23T18:17:02.692Z,62.40
2023-01-23T18:19:30.432Z,62.63
2023-01-23T18:21:58.133Z,61.10
2023-01-23T18:24:30.389Z,63.23
2023-01-23T18:27:23.186Z,62.83
2023-01-23T18:30:27.532Z,62.47
2023-01-23T18:33:03.641Z,61.23
2023-01-23T18:36:02.499Z,64.57
2023-01-23T18:39:03.566Z,61.37
2023-01-23T18:41:30.878Z,62.33
2023-01-23T18:44:10.790Z,62.57
2023-01-23T18:46:38.659Z,63.33
2023-01-23T18:49:06.394Z,64.37
2023-01-23T18:51:47.207Z,65.10
2023-01-23T18:54:45.550Z,62.00
2023-01-23T18:57:48.943Z,62.83
2023-01-23T19:00:24.872Z,62.50
2023-01-23T19:02:57.120Z,62.07
2023-01-23T19:05:30.597Z,62.73
2023-01-23T19:08:00.013Z,62.53
2023-01-23T19:10:48.665Z,61.47
2023-01-23T19:13:42.956Z,63.43
2023-01-23T19:16:35.679Z,63.60
2023-01-23T19:19:19.694Z,63.30
2023-01-23T19:21:47.396Z,61.77
2023-01-23T19:24:18.768Z,62.07
2023-01-23T19:26:46.591Z,62.60
2023-01-23T19:29:22.147Z,62.10
2023-01-23T19:32:06.658Z,60.83
2023-01-23T19:34:34.909Z,60.23
2023-01-23T19:37:03.253Z,60.97
2023-01-23T19:39:30.918Z,60.87
2023-01-23T19:41:59.304Z,61.07
2023-01-23T19:44:28.973Z,62.27
2023-01-23T19:46:56.601Z,62.33
2023-01-23T19:49:25.122Z,62.63
2023-01-23T19:51:52.676Z,62.60
2023-01-23T19:54:22.217Z,60.23
2023-01-23T19:56:50.905Z,63.20
2023-01-23T19:59:18.367Z,61.20
2023-01-23T20:01:48.546Z,62.10
2023-01-23T20:04:23.905Z,61.97
2023-01-23T20:06:54.121Z,62.43
2023-01-23T20:09:22.172Z,61.73
2023-01-23T20:11:50.142Z,64.07
2023-01-23T20:14:17.558Z,61.77
2023-01-23T20:16:45.018Z,63.47
2023-01-23T20:19:15.638Z,61.70
2023-01-23T20:21:43.230Z,62.33
2023-01-23T20:24:11.265Z,60.80
2023-01-23T20:26:39.264Z,61.47
2023-01-23T20:29:08.624Z,61.33
2023-01-23T20:31:36.258Z,61.27
2023-01-23T20:34:03.936Z,60.40
2023-01-23T20:36:31.407Z,61.47
2023-01-23T20:38:58.867Z,62.43
2023-01-23T20:41:26.294Z,62.20
2023-01-23T20:43:53.811Z,59.97
2023-01-23T20:46:21.290Z,61.67
2023-01-23T20:48:48.693Z,61.30
2023-01-23T20:51:17.088Z,61.77
2023-01-23T20:53:45.206Z,60.73
2023-01-23T20:56:19.245Z,60.67
2023-01-23T20:59:07.835Z,62.27
2023-01-23T21:01:57.147Z,61.00
2023-01-23T21:04:28.162Z,59.83
2023-01-23T21:06:55.577Z,61.67
2023-01-23T21:09:23.911Z,60.97
2023-01-23T21:11:52.757Z,62.20
2023-01-23T21:14:21.964Z,67.90
2023-01-23T21:16:49.918Z,61.87
2023-01-23T21:19:17.924Z,61.23
2023-01-23T21:21:45.993Z,62.60
2023-01-23T21:24:13.194Z,62.33
2023-01-23T21:26:40.741Z,63.27
2023-01-23T21:29:09.952Z,61.20
2023-01-23T21:31:41.376Z,61.93
2023-01-23T21:34:13.974Z,61.07
2023-01-23T21:36:42.652Z,60.27
2023-01-23T21:39:13.620Z,64.20
2023-01-23T21:41:41.074Z,61.80
2023-01-23T21:44:10.913Z,62.23
2023-01-23T21:46:38.678Z,61.43
2023-01-23T21:49:06.120Z,62.63
2023-01-23T21:51:33.780Z,63.30
2023-01-23T21:54:00.890Z,63.30
2023-01-23T21:56:28.029Z,64.53
2023-01-23T21:58:55.501Z,63.47
2023-01-23T22:01:45.283Z,63.13
2023-01-23T22:04:22.436Z,62.57
2023-01-23T22:06:55.040Z,62.97
2023-01-23T22:09:24.952Z,64.03
2023-01-23T22:11:52.716Z,62.67
2023-01-23T22:14:19.913Z,64.73
2023-01-23T22:16:49.387Z,62.43
2023-01-23T22:19:24.928Z,61.77
2023-01-23T22:21:57.161Z,63.73
2023-01-23T22:24:24.736Z,62.90
2023-01-23T22:26:52.312Z,61.97
2023-01-23T22:29:19.894Z,64.27
2023-01-23T22:31:47.057Z,61.00
2023-01-23T22:34:14.699Z,61.80
2023-01-23T22:36:42.144Z,61.07
2023-01-23T22:39:09.907Z,61.27
2023-01-23T22:41:37.340Z,62.20
2023-01-23T22:44:04.941Z,61.33
2023-01-23T22:46:32.543Z,61.30
2023-01-23T22:49:00.079Z,60.30
2023-01-23T22:51:28.400Z,61.57
2023-01-23T22:53:57.766Z,60.80
2023-01-23T22:56:27.352Z,62.47
2023-01-23T22:58:56.028Z,61.83
2023-01-23T23:01:24.857Z,60.57
2023-01-23T23:03:52.708Z,60.87
2023-01-23T23:06:20.373Z,59.97
2023-01-23T23:08:48.609Z,62.00
2023-01-23T23:11:22.094Z,61.17
2023-01-23T23:13:50.103Z,61.33
2023-01-23T23:16:23.718Z,63.47
2023-01-23T23:18:54.138Z,60.23
2023-01-23T23:21:25.398Z,97.73
2023-01-23T23:23:58.020Z,61.77
2023-01-23T23:26:27.834Z,61.70
2023-01-23T23:28:55.753Z,61.57
2023-01-23T23:31:23.296Z,62.47
2023-01-23T23:33:51.166Z,61.90
2023-01-23T23:36:18.837Z,62.20
2023-01-23T23:38:46.000Z,61.53
2023-01-23T23:41:15.862Z,61.33
2023-01-23T23:43:43.803Z,61.40
2023-01-23T23:46:12.683Z,61.47
2023-01-23T23:48:40.325Z,62.30
2023-01-23T23:51:12.158Z,62.67
2023-01-23T23:53:39.817Z,60.77
2023-01-23T23:56:08.079Z,61.13
2023-01-23T23:58:38.649Z,61.67
